Terminal Aerodrome Forecast
Issued by NWS Portland, OR

Home | Current Version | Previous Version | Text Only | Print | Product List | Glossary On
Versions: 1 2 3 4 5 6 7 8 9 10 11 12 13
000
FTUS46 KPQR 272330
TAFEUG
TAF
KEUG 272330Z 2800/2824 35008KT P6SM SKC
     FM280300 31006KT P6SM SKC
     FM280500 21007KT P6SM SKC
     FM281400 21004KT P6SM BKN015
     FM281800 22006KT P6SM SKC=

USA.gov is the U.S. government's official web portal to all federal, state and local government web resources and services.